sensor_id;sensor_type;location;lat;lon;timestamp;P1;durP1;ratioP1;P2;durP2;ratioP2
17991;SDS011;9121;50.926;5.340;2022-08-19T00:01:22;31.65;;;23.88;;
17991;SDS011;9121;50.926;5.340;2022-08-19T00:03:50;30.85;;;24.70;;
17991;SDS011;9121;50.926;5.340;2022-08-19T00:06:18;32.72;;;26.10;;
17991;SDS011;9121;50.926;5.340;2022-08-19T00:08:45;37.28;;;26.88;;
17991;SDS011;9121;50.926;5.340;2022-08-19T00:11:12;31.23;;;25.27;;
17991;SDS011;9121;50.926;5.340;2022-08-19T00:13:39;31.92;;;24.60;;
17991;SDS011;9121;50.926;5.340;2022-08-19T00:16:06;31.55;;;24.40;;
17991;SDS011;9121;50.926;5.340;2022-08-19T00:18:33;51.47;;;26.67;;
17991;SDS011;9121;50.926;5.340;2022-08-19T00:21:00;30.75;;;25.25;;
17991;SDS011;9121;50.926;5.340;2022-08-19T00:23:29;32.03;;;25.13;;
17991;SDS011;9121;50.926;5.340;2022-08-19T00:25:59;35.33;;;27.70;;
17991;SDS011;9121;50.926;5.340;2022-08-19T00:28:26;33.40;;;27.45;;
17991;SDS011;9121;50.926;5.340;2022-08-19T00:30:53;34.28;;;27.00;;
17991;SDS011;9121;50.926;5.340;2022-08-19T00:33:20;32.45;;;25.73;;
17991;SDS011;9121;50.926;5.340;2022-08-19T00:35:47;36.28;;;26.00;;
17991;SDS011;9121;50.926;5.340;2022-08-19T00:38:14;31.77;;;26.50;;
17991;SDS011;9121;50.926;5.340;2022-08-19T00:40:43;33.05;;;26.45;;
17991;SDS011;9121;50.926;5.340;2022-08-19T00:43:11;33.08;;;26.33;;
17991;SDS011;9121;50.926;5.340;2022-08-19T00:45:39;36.75;;;27.08;;
17991;SDS011;9121;50.926;5.340;2022-08-19T00:48:09;35.72;;;27.30;;
17991;SDS011;9121;50.926;5.340;2022-08-19T00:50:38;38.33;;;28.58;;
17991;SDS011;9121;50.926;5.340;2022-08-19T00:53:08;36.92;;;27.52;;
17991;SDS011;9121;50.926;5.340;2022-08-19T00:55:36;36.13;;;28.65;;
17991;SDS011;9121;50.926;5.340;2022-08-19T00:58:07;34.45;;;27.05;;
17991;SDS011;9121;50.926;5.340;2022-08-19T01:00:36;41.83;;;26.92;;
17991;SDS011;9121;50.926;5.340;2022-08-19T01:03:05;51.47;;;28.60;;
17991;SDS011;9121;50.926;5.340;2022-08-19T01:05:33;34.92;;;27.27;;
17991;SDS011;9121;50.926;5.340;2022-08-19T01:08:02;36.03;;;28.00;;
17991;SDS011;9121;50.926;5.340;2022-08-19T01:10:33;37.88;;;28.95;;
17991;SDS011;9121;50.926;5.340;2022-08-19T01:13:03;43.08;;;29.13;;
17991;SDS011;9121;50.926;5.340;2022-08-19T01:15:40;35.85;;;28.20;;
17991;SDS011;9121;50.926;5.340;2022-08-19T01:18:11;41.30;;;30.35;;
17991;SDS011;9121;50.926;5.340;2022-08-19T01:20:41;38.13;;;28.02;;
17991;SDS011;9121;50.926;5.340;2022-08-19T01:23:10;40.65;;;29.08;;
17991;SDS011;9121;50.926;5.340;2022-08-19T01:25:39;37.33;;;28.10;;
17991;SDS011;9121;50.926;5.340;2022-08-19T01:28:14;37.78;;;28.95;;
17991;SDS011;9121;50.926;5.340;2022-08-19T01:30:43;43.13;;;29.85;;
17991;SDS011;9121;50.926;5.340;2022-08-19T01:33:11;43.35;;;29.80;;
17991;SDS011;9121;50.926;5.340;2022-08-19T01:35:39;40.97;;;29.65;;
17991;SDS011;9121;50.926;5.340;2022-08-19T01:38:10;39.67;;;28.58;;
17991;SDS011;9121;50.926;5.340;2022-08-19T01:40:49;42.80;;;30.48;;
17991;SDS011;9121;50.926;5.340;2022-08-19T01:43:16;44.60;;;29.77;;
17991;SDS011;9121;50.926;5.340;2022-08-19T01:45:44;40.33;;;30.08;;
17991;SDS011;9121;50.926;5.340;2022-08-19T01:48:12;38.42;;;29.80;;
17991;SDS011;9121;50.926;5.340;2022-08-19T01:50:40;43.35;;;30.83;;
17991;SDS011;9121;50.926;5.340;2022-08-19T01:53:09;43.65;;;29.88;;
17991;SDS011;9121;50.926;5.340;2022-08-19T01:55:39;39.60;;;30.35;;
17991;SDS011;9121;50.926;5.340;2022-08-19T01:58:08;40.20;;;29.77;;
17991;SDS011;9121;50.926;5.340;2022-08-19T02:00:38;47.67;;;33.25;;
17991;SDS011;9121;50.926;5.340;2022-08-19T02:03:06;41.22;;;29.48;;
17991;SDS011;9121;50.926;5.340;2022-08-19T02:05:33;46.13;;;30.77;;
17991;SDS011;9121;50.926;5.340;2022-08-19T02:08:00;43.78;;;31.13;;
17991;SDS011;9121;50.926;5.340;2022-08-19T02:10:27;46.25;;;31.17;;
17991;SDS011;9121;50.926;5.340;2022-08-19T02:12:55;48.17;;;32.47;;
17991;SDS011;9121;50.926;5.340;2022-08-19T02:15:22;50.58;;;31.75;;
17991;SDS011;9121;50.926;5.340;2022-08-19T02:17:49;45.92;;;33.10;;
17991;SDS011;9121;50.926;5.340;2022-08-19T02:20:17;51.25;;;34.97;;
17991;SDS011;9121;50.926;5.340;2022-08-19T02:22:44;47.33;;;32.42;;
17991;SDS011;9121;50.926;5.340;2022-08-19T02:25:11;46.22;;;33.67;;
17991;SDS011;9121;50.926;5.340;2022-08-19T02:27:40;53.53;;;35.42;;
17991;SDS011;9121;50.926;5.340;2022-08-19T02:30:10;47.67;;;33.17;;
17991;SDS011;9121;50.926;5.340;2022-08-19T02:32:39;46.05;;;35.20;;
17991;SDS011;9121;50.926;5.340;2022-08-19T02:35:07;52.70;;;34.03;;
17991;SDS011;9121;50.926;5.340;2022-08-19T02:37:34;49.80;;;33.58;;
17991;SDS011;9121;50.926;5.340;2022-08-19T02:40:19;54.65;;;35.40;;
17991;SDS011;9121;50.926;5.340;2022-08-19T02:42:46;52.67;;;35.80;;
17991;SDS011;9121;50.926;5.340;2022-08-19T02:45:15;51.95;;;35.70;;
17991;SDS011;9121;50.926;5.340;2022-08-19T02:47:41;59.05;;;36.88;;
17991;SDS011;9121;50.926;5.340;2022-08-19T02:50:08;56.47;;;36.10;;
17991;SDS011;9121;50.926;5.340;2022-08-19T02:52:35;55.03;;;36.45;;
17991;SDS011;9121;50.926;5.340;2022-08-19T02:55:03;57.05;;;36.40;;
17991;SDS011;9121;50.926;5.340;2022-08-19T02:57:30;59.97;;;37.38;;
17991;SDS011;9121;50.926;5.340;2022-08-19T02:59:57;66.68;;;38.70;;
17991;SDS011;9121;50.926;5.340;2022-08-19T03:02:27;61.65;;;38.95;;
17991;SDS011;9121;50.926;5.340;2022-08-19T03:04:55;58.47;;;38.40;;
17991;SDS011;9121;50.926;5.340;2022-08-19T03:07:22;65.32;;;40.35;;
17991;SDS011;9121;50.926;5.340;2022-08-19T03:09:49;64.28;;;40.55;;
17991;SDS011;9121;50.926;5.340;2022-08-19T03:12:16;70.22;;;41.05;;
17991;SDS011;9121;50.926;5.340;2022-08-19T03:14:43;69.07;;;41.38;;
17991;SDS011;9121;50.926;5.340;2022-08-19T03:17:10;70.65;;;42.25;;
17991;SDS011;9121;50.926;5.340;2022-08-19T03:19:39;74.50;;;44.05;;
17991;SDS011;9121;50.926;5.340;2022-08-19T03:22:06;73.78;;;43.50;;
17991;SDS011;9121;50.926;5.340;2022-08-19T03:24:33;79.22;;;44.20;;
17991;SDS011;9121;50.926;5.340;2022-08-19T03:27:01;72.45;;;42.17;;
17991;SDS011;9121;50.926;5.340;2022-08-19T03:29:30;73.68;;;41.33;;
17991;SDS011;9121;50.926;5.340;2022-08-19T03:31:57;76.68;;;43.40;;
17991;SDS011;9121;50.926;5.340;2022-08-19T03:34:26;81.75;;;44.38;;
17991;SDS011;9121;50.926;5.340;2022-08-19T03:36:58;74.80;;;43.97;;
17991;SDS011;9121;50.926;5.340;2022-08-19T03:39:29;71.43;;;41.65;;
17991;SDS011;9121;50.926;5.340;2022-08-19T03:41:56;77.00;;;44.70;;
17991;SDS011;9121;50.926;5.340;2022-08-19T03:44:25;76.20;;;43.40;;
17991;SDS011;9121;50.926;5.340;2022-08-19T03:46:52;73.45;;;43.55;;
17991;SDS011;9121;50.926;5.340;2022-08-19T03:49:21;81.45;;;43.95;;
17991;SDS011;9121;50.926;5.340;2022-08-19T03:51:50;78.88;;;44.58;;
17991;SDS011;9121;50.926;5.340;2022-08-19T03:54:20;79.72;;;45.38;;
17991;SDS011;9121;50.926;5.340;2022-08-19T03:56:49;80.60;;;45.15;;
17991;SDS011;9121;50.926;5.340;2022-08-19T03:59:20;88.45;;;47.40;;
17991;SDS011;9121;50.926;5.340;2022-08-19T04:01:50;83.13;;;45.08;;
17991;SDS011;9121;50.926;5.340;2022-08-19T04:04:17;88.43;;;48.33;;
17991;SDS011;9121;50.926;5.340;2022-08-19T04:06:43;83.82;;;46.08;;
17991;SDS011;9121;50.926;5.340;2022-08-19T04:09:12;85.80;;;46.88;;
17991;SDS011;9121;50.926;5.340;2022-08-19T04:11:41;89.88;;;47.38;;
17991;SDS011;9121;50.926;5.340;2022-08-19T04:14:10;85.45;;;46.38;;
17991;SDS011;9121;50.926;5.340;2022-08-19T04:16:37;85.90;;;46.17;;
17991;SDS011;9121;50.926;5.340;2022-08-19T04:19:05;87.50;;;46.35;;
17991;SDS011;9121;50.926;5.340;2022-08-19T04:21:33;82.07;;;46.25;;
17991;SDS011;9121;50.926;5.340;2022-08-19T04:24:00;86.15;;;47.25;;
17991;SDS011;9121;50.926;5.340;2022-08-19T04:26:28;84.70;;;45.83;;
17991;SDS011;9121;50.926;5.340;2022-08-19T04:28:59;88.90;;;46.90;;
17991;SDS011;9121;50.926;5.340;2022-08-19T04:31:28;88.03;;;46.88;;
17991;SDS011;9121;50.926;5.340;2022-08-19T04:33:58;86.05;;;47.88;;
17991;SDS011;9121;50.926;5.340;2022-08-19T04:36:27;91.65;;;47.95;;
17991;SDS011;9121;50.926;5.340;2022-08-19T04:38:57;87.88;;;47.72;;
17991;SDS011;9121;50.926;5.340;2022-08-19T04:41:26;92.43;;;48.53;;
17991;SDS011;9121;50.926;5.340;2022-08-19T04:44:12;91.70;;;48.08;;
17991;SDS011;9121;50.926;5.340;2022-08-19T04:46:43;82.03;;;46.85;;
17991;SDS011;9121;50.926;5.340;2022-08-19T04:49:12;91.32;;;45.75;;
17991;SDS011;9121;50.926;5.340;2022-08-19T04:51:39;88.22;;;48.42;;
17991;SDS011;9121;50.926;5.340;2022-08-19T04:54:08;93.85;;;47.90;;
17991;SDS011;9121;50.926;5.340;2022-08-19T04:56:35;96.22;;;47.92;;
17991;SDS011;9121;50.926;5.340;2022-08-19T04:59:02;119.60;;;48.65;;
17991;SDS011;9121;50.926;5.340;2022-08-19T05:01:31;96.70;;;47.47;;
17991;SDS011;9121;50.926;5.340;2022-08-19T05:04:02;93.60;;;46.50;;
17991;SDS011;9121;50.926;5.340;2022-08-19T05:06:30;96.90;;;49.67;;
17991;SDS011;9121;50.926;5.340;2022-08-19T05:08:59;90.85;;;46.08;;
17991;SDS011;9121;50.926;5.340;2022-08-19T05:11:27;101.20;;;49.35;;
17991;SDS011;9121;50.926;5.340;2022-08-19T05:13:56;92.38;;;46.30;;
17991;SDS011;9121;50.926;5.340;2022-08-19T05:16:25;97.65;;;49.55;;
17991;SDS011;9121;50.926;5.340;2022-08-19T05:18:54;109.22;;;50.20;;
17991;SDS011;9121;50.926;5.340;2022-08-19T05:21:39;101.70;;;48.17;;
17991;SDS011;9121;50.926;5.340;2022-08-19T05:24:24;141.82;;;52.80;;
17991;SDS011;9121;50.926;5.340;2022-08-19T05:26:53;109.20;;;50.95;;
17991;SDS011;9121;50.926;5.340;2022-08-19T05:29:23;102.40;;;50.90;;
17991;SDS011;9121;50.926;5.340;2022-08-19T05:31:53;103.30;;;51.53;;
17991;SDS011;9121;50.926;5.340;2022-08-19T05:34:22;105.68;;;51.40;;
17991;SDS011;9121;50.926;5.340;2022-08-19T05:36:51;105.90;;;50.65;;
17991;SDS011;9121;50.926;5.340;2022-08-19T05:39:22;101.25;;;51.63;;
17991;SDS011;9121;50.926;5.340;2022-08-19T05:41:51;106.10;;;52.33;;
17991;SDS011;9121;50.926;5.340;2022-08-19T05:44:22;104.88;;;52.35;;
17991;SDS011;9121;50.926;5.340;2022-08-19T05:46:49;95.63;;;50.45;;
17991;SDS011;9121;50.926;5.340;2022-08-19T05:49:18;102.50;;;48.47;;
17991;SDS011;9121;50.926;5.340;2022-08-19T05:51:48;83.93;;;45.15;;
17991;SDS011;9121;50.926;5.340;2022-08-19T05:54:15;87.93;;;45.40;;
17991;SDS011;9121;50.926;5.340;2022-08-19T05:56:43;82.22;;;45.42;;
17991;SDS011;9121;50.926;5.340;2022-08-19T05:59:13;72.45;;;41.83;;
17991;SDS011;9121;50.926;5.340;2022-08-19T06:01:42;73.35;;;40.65;;
17991;SDS011;9121;50.926;5.340;2022-08-19T06:04:10;72.78;;;41.20;;
17991;SDS011;9121;50.926;5.340;2022-08-19T06:06:39;77.00;;;40.70;;
17991;SDS011;9121;50.926;5.340;2022-08-19T06:09:08;71.88;;;39.60;;
17991;SDS011;9121;50.926;5.340;2022-08-19T06:11:36;70.20;;;39.45;;
17991;SDS011;9121;50.926;5.340;2022-08-19T06:14:07;68.60;;;38.80;;
17991;SDS011;9121;50.926;5.340;2022-08-19T06:16:36;62.60;;;37.75;;
17991;SDS011;9121;50.926;5.340;2022-08-19T06:19:05;72.32;;;39.00;;
17991;SDS011;9121;50.926;5.340;2022-08-19T06:21:35;62.55;;;37.03;;
17991;SDS011;9121;50.926;5.340;2022-08-19T06:24:03;63.25;;;36.15;;
17991;SDS011;9121;50.926;5.340;2022-08-19T06:26:32;63.03;;;38.20;;
17991;SDS011;9121;50.926;5.340;2022-08-19T06:29:00;62.72;;;34.55;;
17991;SDS011;9121;50.926;5.340;2022-08-19T06:31:28;57.25;;;32.80;;
17991;SDS011;9121;50.926;5.340;2022-08-19T06:33:58;61.75;;;33.72;;
17991;SDS011;9121;50.926;5.340;2022-08-19T06:36:28;58.67;;;34.15;;
17991;SDS011;9121;50.926;5.340;2022-08-19T06:38:59;64.25;;;33.53;;
17991;SDS011;9121;50.926;5.340;2022-08-19T06:41:28;60.55;;;32.40;;
17991;SDS011;9121;50.926;5.340;2022-08-19T06:43:57;51.03;;;30.63;;
17991;SDS011;9121;50.926;5.340;2022-08-19T06:46:24;48.55;;;29.40;;
17991;SDS011;9121;50.926;5.340;2022-08-19T06:48:52;48.90;;;28.02;;
17991;SDS011;9121;50.926;5.340;2022-08-19T06:51:20;55.60;;;29.60;;
17991;SDS011;9121;50.926;5.340;2022-08-19T06:53:49;49.58;;;30.65;;
17991;SDS011;9121;50.926;5.340;2022-08-19T06:56:18;54.00;;;29.35;;
17991;SDS011;9121;50.926;5.340;2022-08-19T06:58:47;49.00;;;29.13;;
17991;SDS011;9121;50.926;5.340;2022-08-19T07:01:17;47.97;;;27.13;;
17991;SDS011;9121;50.926;5.340;2022-08-19T07:03:44;50.63;;;27.23;;
17991;SDS011;9121;50.926;5.340;2022-08-19T07:06:13;45.83;;;25.05;;
17991;SDS011;9121;50.926;5.340;2022-08-19T07:08:42;44.30;;;25.38;;
17991;SDS011;9121;50.926;5.340;2022-08-19T07:11:10;43.70;;;24.73;;
17991;SDS011;9121;50.926;5.340;2022-08-19T07:13:39;38.55;;;23.27;;
17991;SDS011;9121;50.926;5.340;2022-08-19T07:16:09;38.03;;;21.33;;
17991;SDS011;9121;50.926;5.340;2022-08-19T07:18:39;42.38;;;22.58;;
17991;SDS011;9121;50.926;5.340;2022-08-19T07:21:09;38.33;;;21.63;;
17991;SDS011;9121;50.926;5.340;2022-08-19T07:23:37;35.83;;;20.92;;
17991;SDS011;9121;50.926;5.340;2022-08-19T07:26:05;36.70;;;20.13;;
17991;SDS011;9121;50.926;5.340;2022-08-19T07:28:33;40.65;;;21.48;;
17991;SDS011;9121;50.926;5.340;2022-08-19T07:31:04;35.55;;;20.58;;
17991;SDS011;9121;50.926;5.340;2022-08-19T07:33:32;46.10;;;20.15;;
17991;SDS011;9121;50.926;5.340;2022-08-19T07:36:03;38.35;;;20.35;;
17991;SDS011;9121;50.926;5.340;2022-08-19T07:38:31;40.40;;;20.08;;
17991;SDS011;9121;50.926;5.340;2022-08-19T07:40:58;42.83;;;20.35;;
17991;SDS011;9121;50.926;5.340;2022-08-19T07:43:25;40.03;;;21.42;;
17991;SDS011;9121;50.926;5.340;2022-08-19T07:45:52;49.63;;;22.98;;
17991;SDS011;9121;50.926;5.340;2022-08-19T07:48:21;47.83;;;21.90;;
17991;SDS011;9121;50.926;5.340;2022-08-19T07:50:50;41.38;;;21.15;;
17991;SDS011;9121;50.926;5.340;2022-08-19T07:53:20;40.47;;;21.23;;
17991;SDS011;9121;50.926;5.340;2022-08-19T07:55:47;37.83;;;20.35;;
17991;SDS011;9121;50.926;5.340;2022-08-19T07:58:15;39.42;;;20.90;;
17991;SDS011;9121;50.926;5.340;2022-08-19T08:00:45;32.80;;;19.98;;
17991;SDS011;9121;50.926;5.340;2022-08-19T08:03:13;36.97;;;20.25;;
17991;SDS011;9121;50.926;5.340;2022-08-19T08:05:41;32.30;;;18.05;;
17991;SDS011;9121;50.926;5.340;2022-08-19T08:08:27;37.00;;;19.63;;
17991;SDS011;9121;50.926;5.340;2022-08-19T08:11:13;36.83;;;19.33;;
17991;SDS011;9121;50.926;5.340;2022-08-19T08:13:41;33.75;;;18.83;;
17991;SDS011;9121;50.926;5.340;2022-08-19T08:16:08;33.92;;;19.02;;
17991;SDS011;9121;50.926;5.340;2022-08-19T08:18:35;29.70;;;17.38;;
17991;SDS011;9121;50.926;5.340;2022-08-19T08:21:07;35.22;;;18.00;;
17991;SDS011;9121;50.926;5.340;2022-08-19T08:23:36;37.40;;;17.80;;
17991;SDS011;9121;50.926;5.340;2022-08-19T08:26:03;24.85;;;16.00;;
17991;SDS011;9121;50.926;5.340;2022-08-19T08:28:30;30.40;;;15.60;;
17991;SDS011;9121;50.926;5.340;2022-08-19T08:30:57;31.45;;;16.55;;
17991;SDS011;9121;50.926;5.340;2022-08-19T08:33:25;21.67;;;14.15;;
17991;SDS011;9121;50.926;5.340;2022-08-19T08:35:53;35.78;;;15.73;;
17991;SDS011;9121;50.926;5.340;2022-08-19T08:38:20;25.58;;;15.13;;
17991;SDS011;9121;50.926;5.340;2022-08-19T08:40:49;27.77;;;15.10;;
17991;SDS011;9121;50.926;5.340;2022-08-19T08:43:22;25.67;;;14.88;;
17991;SDS011;9121;50.926;5.340;2022-08-19T08:45:55;21.98;;;13.77;;
17991;SDS011;9121;50.926;5.340;2022-08-19T08:48:29;259.15;;;26.75;;
17991;SDS011;9121;50.926;5.340;2022-08-19T08:51:03;39.95;;;13.65;;
17991;SDS011;9121;50.926;5.340;2022-08-19T08:53:33;22.83;;;12.95;;
17991;SDS011;9121;50.926;5.340;2022-08-19T08:56:03;24.85;;;14.18;;
17991;SDS011;9121;50.926;5.340;2022-08-19T08:58:41;30.23;;;13.00;;
17991;SDS011;9121;50.926;5.340;2022-08-19T09:01:14;24.55;;;13.38;;
17991;SDS011;9121;50.926;5.340;2022-08-19T09:03:41;24.83;;;13.57;;
17991;SDS011;9121;50.926;5.340;2022-08-19T09:06:14;21.60;;;11.60;;
17991;SDS011;9121;50.926;5.340;2022-08-19T09:08:56;21.92;;;11.95;;
17991;SDS011;9121;50.926;5.340;2022-08-19T09:11:33;19.08;;;11.98;;
17991;SDS011;9121;50.926;5.340;2022-08-19T09:14:24;20.50;;;12.32;;
17991;SDS011;9121;50.926;5.340;2022-08-19T09:17:00;19.58;;;12.13;;
17991;SDS011;9121;50.926;5.340;2022-08-19T09:19:28;28.30;;;11.25;;
17991;SDS011;9121;50.926;5.340;2022-08-19T09:21:56;22.85;;;10.85;;
17991;SDS011;9121;50.926;5.340;2022-08-19T09:24:25;22.65;;;12.90;;
17991;SDS011;9121;50.926;5.340;2022-08-19T09:26:54;20.25;;;12.25;;
17991;SDS011;9121;50.926;5.340;2022-08-19T09:29:21;26.13;;;12.90;;
17991;SDS011;9121;50.926;5.340;2022-08-19T09:31:48;19.98;;;11.77;;
17991;SDS011;9121;50.926;5.340;2022-08-19T09:34:15;21.15;;;11.57;;
17991;SDS011;9121;50.926;5.340;2022-08-19T09:36:44;17.67;;;11.63;;
17991;SDS011;9121;50.926;5.340;2022-08-19T09:39:12;14.88;;;9.90;;
17991;SDS011;9121;50.926;5.340;2022-08-19T09:41:38;21.48;;;10.63;;
17991;SDS011;9121;50.926;5.340;2022-08-19T09:44:07;17.88;;;8.77;;
17991;SDS011;9121;50.926;5.340;2022-08-19T09:46:37;14.88;;;9.35;;
17991;SDS011;9121;50.926;5.340;2022-08-19T09:49:04;15.02;;;8.35;;
17991;SDS011;9121;50.926;5.340;2022-08-19T09:51:31;13.93;;;9.05;;
17991;SDS011;9121;50.926;5.340;2022-08-19T09:53:59;21.58;;;8.52;;
17991;SDS011;9121;50.926;5.340;2022-08-19T09:56:27;15.18;;;7.72;;
17991;SDS011;9121;50.926;5.340;2022-08-19T09:58:57;25.38;;;7.78;;
17991;SDS011;9121;50.926;5.340;2022-08-19T10:01:26;14.73;;;6.57;;
17991;SDS011;9121;50.926;5.340;2022-08-19T10:03:54;12.32;;;6.10;;
17991;SDS011;9121;50.926;5.340;2022-08-19T10:06:25;11.25;;;6.13;;
17991;SDS011;9121;50.926;5.340;2022-08-19T10:08:56;15.25;;;5.25;;
17991;SDS011;9121;50.926;5.340;2022-08-19T10:11:23;9.65;;;5.32;;
17991;SDS011;9121;50.926;5.340;2022-08-19T10:13:51;8.98;;;5.20;;
17991;SDS011;9121;50.926;5.340;2022-08-19T10:16:19;12.00;;;5.50;;
17991;SDS011;9121;50.926;5.340;2022-08-19T10:18:49;8.15;;;5.28;;
17991;SDS011;9121;50.926;5.340;2022-08-19T10:21:18;12.52;;;5.30;;
17991;SDS011;9121;50.926;5.340;2022-08-19T10:23:47;11.35;;;5.15;;
17991;SDS011;9121;50.926;5.340;2022-08-19T10:26:17;18.30;;;7.75;;
17991;SDS011;9121;50.926;5.340;2022-08-19T10:28:46;42.45;;;28.40;;
17991;SDS011;9121;50.926;5.340;2022-08-19T10:31:14;13.18;;;5.00;;
17991;SDS011;9121;50.926;5.340;2022-08-19T10:33:44;9.77;;;4.78;;
17991;SDS011;9121;50.926;5.340;2022-08-19T10:36:14;10.75;;;4.70;;
17991;SDS011;9121;50.926;5.340;2022-08-19T10:38:43;20.17;;;7.80;;
17991;SDS011;9121;50.926;5.340;2022-08-19T10:41:12;17.95;;;8.35;;
17991;SDS011;9121;50.926;5.340;2022-08-19T10:43:40;9.48;;;4.78;;
17991;SDS011;9121;50.926;5.340;2022-08-19T10:46:08;11.60;;;5.10;;
17991;SDS011;9121;50.926;5.340;2022-08-19T10:48:37;8.13;;;4.70;;
17991;SDS011;9121;50.926;5.340;2022-08-19T10:51:04;8.18;;;4.75;;
17991;SDS011;9121;50.926;5.340;2022-08-19T10:53:50;7.15;;;4.15;;
17991;SDS011;9121;50.926;5.340;2022-08-19T10:56:17;8.20;;;4.50;;
17991;SDS011;9121;50.926;5.340;2022-08-19T10:59:02;8.82;;;4.15;;
17991;SDS011;9121;50.926;5.340;2022-08-19T11:01:30;7.50;;;4.25;;
17991;SDS011;9121;50.926;5.340;2022-08-19T11:03:59;9.32;;;4.25;;
17991;SDS011;9121;50.926;5.340;2022-08-19T11:06:26;9.82;;;4.38;;
17991;SDS011;9121;50.926;5.340;2022-08-19T11:08:55;9.35;;;4.40;;
17991;SDS011;9121;50.926;5.340;2022-08-19T11:11:22;10.68;;;4.03;;
17991;SDS011;9121;50.926;5.340;2022-08-19T11:13:49;7.97;;;5.00;;
17991;SDS011;9121;50.926;5.340;2022-08-19T11:16:19;14.45;;;5.95;;
17991;SDS011;9121;50.926;5.340;2022-08-19T11:18:49;9.30;;;4.35;;
17991;SDS011;9121;50.926;5.340;2022-08-19T11:21:20;8.52;;;4.60;;
17991;SDS011;9121;50.926;5.340;2022-08-19T11:23:49;11.07;;;5.20;;
17991;SDS011;9121;50.926;5.340;2022-08-19T11:26:20;9.35;;;4.30;;
17991;SDS011;9121;50.926;5.340;2022-08-19T11:28:49;8.10;;;4.72;;
17991;SDS011;9121;50.926;5.340;2022-08-19T11:31:19;14.10;;;4.88;;
17991;SDS011;9121;50.926;5.340;2022-08-19T11:33:48;11.68;;;5.43;;
17991;SDS011;9121;50.926;5.340;2022-08-19T11:36:15;10.80;;;4.63;;
17991;SDS011;9121;50.926;5.340;2022-08-19T11:38:43;8.88;;;5.50;;
17991;SDS011;9121;50.926;5.340;2022-08-19T11:41:10;9.55;;;4.90;;
17991;SDS011;9121;50.926;5.340;2022-08-19T11:43:39;42.25;;;7.78;;
17991;SDS011;9121;50.926;5.340;2022-08-19T11:46:06;25.00;;;5.32;;
17991;SDS011;9121;50.926;5.340;2022-08-19T11:48:35;7.88;;;4.20;;
17991;SDS011;9121;50.926;5.340;2022-08-19T11:51:03;8.05;;;4.60;;
17991;SDS011;9121;50.926;5.340;2022-08-19T11:53:32;9.88;;;4.07;;
17991;SDS011;9121;50.926;5.340;2022-08-19T11:56:00;9.80;;;4.25;;
17991;SDS011;9121;50.926;5.340;2022-08-19T11:58:28;8.23;;;4.43;;
17991;SDS011;9121;50.926;5.340;2022-08-19T12:00:56;8.18;;;4.28;;
17991;SDS011;9121;50.926;5.340;2022-08-19T12:03:23;8.57;;;3.88;;
17991;SDS011;9121;50.926;5.340;2022-08-19T12:05:51;7.43;;;4.32;;
17991;SDS011;9121;50.926;5.340;2022-08-19T12:08:18;6.22;;;3.88;;
17991;SDS011;9121;50.926;5.340;2022-08-19T12:10:45;13.57;;;4.00;;
17991;SDS011;9121;50.926;5.340;2022-08-19T12:13:12;6.55;;;4.20;;
17991;SDS011;9121;50.926;5.340;2022-08-19T12:15:45;14.30;;;4.30;;
17991;SDS011;9121;50.926;5.340;2022-08-19T12:18:14;7.65;;;4.50;;
17991;SDS011;9121;50.926;5.340;2022-08-19T12:20:42;7.53;;;3.70;;
17991;SDS011;9121;50.926;5.340;2022-08-19T12:23:10;7.00;;;4.40;;
17991;SDS011;9121;50.926;5.340;2022-08-19T12:25:42;9.65;;;4.40;;
17991;SDS011;9121;50.926;5.340;2022-08-19T12:28:13;10.85;;;4.20;;
17991;SDS011;9121;50.926;5.340;2022-08-19T12:30:40;9.77;;;4.45;;
17991;SDS011;9121;50.926;5.340;2022-08-19T12:33:07;15.65;;;4.45;;
17991;SDS011;9121;50.926;5.340;2022-08-19T12:35:38;13.30;;;4.93;;
17991;SDS011;9121;50.926;5.340;2022-08-19T12:38:06;12.48;;;5.05;;
17991;SDS011;9121;50.926;5.340;2022-08-19T12:40:33;8.98;;;6.10;;
17991;SDS011;9121;50.926;5.340;2022-08-19T12:43:00;15.85;;;5.95;;
17991;SDS011;9121;50.926;5.340;2022-08-19T12:45:27;49.03;;;24.65;;
17991;SDS011;9121;50.926;5.340;2022-08-19T12:47:54;16.23;;;8.57;;
17991;SDS011;9121;50.926;5.340;2022-08-19T12:50:21;21.33;;;6.10;;
17991;SDS011;9121;50.926;5.340;2022-08-19T12:52:49;14.65;;;4.43;;
17991;SDS011;9121;50.926;5.340;2022-08-19T12:55:16;10.95;;;3.92;;
17991;SDS011;9121;50.926;5.340;2022-08-19T12:57:44;7.38;;;4.00;;
17991;SDS011;9121;50.926;5.340;2022-08-19T13:00:14;7.35;;;4.70;;
17991;SDS011;9121;50.926;5.340;2022-08-19T13:02:44;5.88;;;4.15;;
17991;SDS011;9121;50.926;5.340;2022-08-19T13:05:16;11.40;;;4.68;;
17991;SDS011;9121;50.926;5.340;2022-08-19T13:07:45;8.00;;;4.63;;
17991;SDS011;9121;50.926;5.340;2022-08-19T13:10:15;7.03;;;4.32;;
17991;SDS011;9121;50.926;5.340;2022-08-19T13:12:45;16.83;;;4.85;;
17991;SDS011;9121;50.926;5.340;2022-08-19T13:15:14;24.25;;;4.72;;
17991;SDS011;9121;50.926;5.340;2022-08-19T13:17:44;8.10;;;4.22;;
17991;SDS011;9121;50.926;5.340;2022-08-19T13:20:12;9.68;;;3.85;;
17991;SDS011;9121;50.926;5.340;2022-08-19T13:22:39;8.25;;;3.85;;
17991;SDS011;9121;50.926;5.340;2022-08-19T13:25:06;5.85;;;3.22;;
17991;SDS011;9121;50.926;5.340;2022-08-19T13:27:36;4.25;;;2.92;;
17991;SDS011;9121;50.926;5.340;2022-08-19T13:30:04;17.58;;;3.67;;
17991;SDS011;9121;50.926;5.340;2022-08-19T13:32:51;5.78;;;3.00;;
17991;SDS011;9121;50.926;5.340;2022-08-19T13:35:35;9.93;;;3.22;;
17991;SDS011;9121;50.926;5.340;2022-08-19T13:38:02;5.40;;;2.92;;
17991;SDS011;9121;50.926;5.340;2022-08-19T13:40:30;3.75;;;2.53;;
17991;SDS011;9121;50.926;5.340;2022-08-19T13:43:01;20.92;;;3.45;;
17991;SDS011;9121;50.926;5.340;2022-08-19T13:45:29;23.02;;;3.85;;
17991;SDS011;9121;50.926;5.340;2022-08-19T13:47:59;5.18;;;2.95;;
17991;SDS011;9121;50.926;5.340;2022-08-19T13:50:29;6.07;;;3.03;;
17991;SDS011;9121;50.926;5.340;2022-08-19T13:52:57;20.50;;;4.03;;
17991;SDS011;9121;50.926;5.340;2022-08-19T13:55:24;14.95;;;2.95;;
17991;SDS011;9121;50.926;5.340;2022-08-19T13:57:52;14.27;;;3.22;;
17991;SDS011;9121;50.926;5.340;2022-08-19T14:00:22;4.47;;;2.30;;
17991;SDS011;9121;50.926;5.340;2022-08-19T14:02:51;6.15;;;2.67;;
17991;SDS011;9121;50.926;5.340;2022-08-19T14:05:19;5.53;;;2.75;;
17991;SDS011;9121;50.926;5.340;2022-08-19T14:07:47;4.20;;;2.60;;
17991;SDS011;9121;50.926;5.340;2022-08-19T14:10:14;4.38;;;2.70;;
17991;SDS011;9121;50.926;5.340;2022-08-19T14:12:41;3.58;;;3.10;;
17991;SDS011;9121;50.926;5.340;2022-08-19T14:15:09;12.02;;;3.13;;
17991;SDS011;9121;50.926;5.340;2022-08-19T14:17:39;3.50;;;2.65;;
17991;SDS011;9121;50.926;5.340;2022-08-19T14:20:09;4.63;;;2.92;;
17991;SDS011;9121;50.926;5.340;2022-08-19T14:22:39;7.47;;;3.25;;
17991;SDS011;9121;50.926;5.340;2022-08-19T14:25:07;7.35;;;2.65;;
17991;SDS011;9121;50.926;5.340;2022-08-19T14:27:36;6.00;;;2.92;;
17991;SDS011;9121;50.926;5.340;2022-08-19T14:30:04;4.63;;;3.28;;
17991;SDS011;9121;50.926;5.340;2022-08-19T14:32:33;5.50;;;2.90;;
17991;SDS011;9121;50.926;5.340;2022-08-19T14:35:01;5.15;;;3.10;;
17991;SDS011;9121;50.926;5.340;2022-08-19T14:37:29;5.13;;;2.63;;
17991;SDS011;9121;50.926;5.340;2022-08-19T14:39:56;10.55;;;3.17;;
17991;SDS011;9121;50.926;5.340;2022-08-19T14:42:23;4.25;;;2.80;;
17991;SDS011;9121;50.926;5.340;2022-08-19T14:44:50;4.00;;;2.53;;
17991;SDS011;9121;50.926;5.340;2022-08-19T14:47:17;4.68;;;2.50;;
17991;SDS011;9121;50.926;5.340;2022-08-19T14:49:44;8.10;;;3.00;;
17991;SDS011;9121;50.926;5.340;2022-08-19T14:52:12;4.97;;;2.90;;